Time;durP1;ratioP1;P1;durP2;ratioP2;P2;SDS_P1;SDS_P2;PMS_P1;PMS_P2;Temp;Humidity;BMP_temperature;BMP_pressure;BME280_temperature;BME280_humidity;BME280_pressure;Samples;Min_cycle;Max_cycle;Signal;HPM_P1;HPM_P2
2022/05/06 00:00:10;;;;;;;9.27;3.70;;;;;;;7.10;29.60;100914.19;5033535;28;20424;-57
2022/05/06 00:02:36;;;;;;;6.70;3.53;;;;;;;7.15;29.36;100906.84;5050911;28;20029;-58
2022/05/06 00:05:01;;;;;;;7.70;3.30;;;;;;;7.24;28.94;100910.88;5051173;28;20021;-59
2022/05/06 00:07:29;;;;;;;8.02;3.70;;;;;;;7.30;29.30;100901.69;5033224;28;20393;-59
2022/05/06 00:09:54;;;;;;;6.05;3.40;;;;;;;7.33;28.91;100899.75;5050851;28;20029;-57
2022/05/06 00:12:20;;;;;;;7.13;3.53;;;;;;;7.23;28.99;100874.50;5032879;28;20064;-55
2022/05/06 00:14:46;;;;;;;8.25;3.15;;;;;;;7.50;28.19;100906.03;5050639;28;20025;-56
2022/05/06 00:17:12;;;;;;;7.40;3.40;;;;;;;7.56;28.24;100905.72;5050383;28;20440;-57
2022/05/06 00:19:38;;;;;;;7.30;4.00;;;;;;;7.59;28.21;100902.91;5051357;28;20089;-56
2022/05/06 00:22:04;;;;;;;10.10;3.30;;;;;;;7.61;27.38;100903.69;5050980;28;20029;-54
2022/05/06 00:24:30;;;;;;;5.40;3.40;;;;;;;7.66;28.13;100907.91;5050748;28;20178;-54
2022/05/06 00:26:58;;;;;;;5.57;3.20;;;;;;;7.74;27.53;100913.72;5032985;28;20400;-56
2022/05/06 00:29:24;;;;;;;10.70;3.88;;;;;;;7.75;27.62;100910.13;5050548;28;20346;-55
2022/05/06 00:31:50;;;;;;;12.85;3.80;;;;;;;7.74;27.59;100911.06;5050888;28;20040;-56
2022/05/06 00:34:16;;;;;;;6.25;3.58;;;;;;;7.74;27.66;100897.75;5032288;28;20028;-58
2022/05/06 00:36:42;;;;;;;5.57;3.42;;;;;;;7.78;27.65;100907.28;5050647;28;20108;-57
2022/05/06 00:39:08;;;;;;;5.60;3.33;;;;;;;7.80;27.25;100905.41;5051026;28;20033;-57
2022/05/06 00:41:34;;;;;;;8.32;3.53;;;;;;;7.88;27.19;100910.34;5051066;28;20449;-59
2022/05/06 00:44:01;;;;;;;5.75;3.25;;;;;;;7.79;26.96;100878.81;5050590;28;20124;-57
2022/05/06 00:46:26;;;;;;;5.50;3.13;;;;;;;7.99;27.25;100907.13;5050484;28;20111;-54
2022/05/06 00:48:52;;;;;;;5.78;3.60;;;;;;;7.86;27.07;100878.41;5051017;28;20036;-55
2022/05/06 00:51:18;;;;;;;6.75;3.58;;;;;;;8.12;26.78;100920.69;5050580;28;20033;-58
2022/05/06 00:53:44;;;;;;;7.68;3.30;;;;;;;8.14;27.08;100916.13;5049920;28;20027;-56
2022/05/06 00:56:11;;;;;;;5.70;3.30;;;;;;;8.11;27.19;100908.28;5049862;28;20386;-57
2022/05/06 00:58:38;;;;;;;5.32;3.28;;;;;;;8.16;26.75;100914.22;5050975;28;20490;-60
2022/05/06 01:01:05;;;;;;;9.80;3.25;;;;;;;8.17;27.07;100915.97;5050467;28;20033;-60
2022/05/06 01:03:31;;;;;;;5.93;3.25;;;;;;;8.15;26.89;100916.03;5050484;28;20164;-56
2022/05/06 01:05:57;;;;;;;7.97;3.08;;;;;;;8.14;26.69;100905.44;5050519;28;20104;-55
2022/05/06 01:08:22;;;;;;;6.25;3.13;;;;;;;8.19;26.57;100917.56;5033113;28;20051;-53
2022/05/06 01:10:48;;;;;;;5.70;2.88;;;;;;;8.19;26.73;100914.91;5050471;28;20024;-55
2022/05/06 01:13:14;;;;;;;8.70;3.45;;;;;;;8.23;26.75;100912.09;5050114;28;20032;-58
2022/05/06 01:15:40;;;;;;;4.97;3.30;;;;;;;8.22;27.13;100913.06;5050306;28;20144;-58
2022/05/06 01:18:11;;;;;;;8.20;3.08;;;;;;;8.28;26.97;100912.72;5049892;28;20025;-57
2022/05/06 01:20:42;;;;;;;8.25;3.00;;;;;;;8.33;26.74;100910.66;5049860;28;20125;-60
2022/05/06 01:23:07;;;;;;;5.93;3.13;;;;;;;8.31;26.62;100904.53;5050221;28;20534;-55
2022/05/06 01:25:33;;;;;;;10.25;3.03;;;;;;;8.19;26.83;100888.22;5049860;28;20061;-56
2022/05/06 01:28:03;;;;;;;7.15;3.30;;;;;;;8.33;26.89;100911.53;5049640;28;20102;-55
2022/05/06 01:30:41;;;;;;;5.15;2.85;;;;;;;8.42;26.76;100910.16;5014966;28;20467;-55
2022/05/06 01:33:09;;;;;;;9.30;2.92;;;;;;;8.39;26.74;100915.66;5050058;28;20108;-58
2022/05/06 01:35:40;;;;;;;5.60;3.00;;;;;;;8.42;26.72;100920.81;5050326;28;20032;-57
2022/05/06 01:38:06;;;;;;;4.45;3.10;;;;;;;8.38;26.84;100911.25;5050164;28;20465;-57
2022/05/06 01:40:39;;;;;;;6.20;3.05;;;;;;;8.23;27.03;100886.28;5049900;28;20080;-56
2022/05/06 01:43:10;;;;;;;5.63;2.65;;;;;;;8.38;27.04;100913.09;5049776;28;20086;-56
2022/05/06 01:45:37;;;;;;;8.77;2.53;;;;;;;8.28;27.45;100910.06;5052128;28;20040;-52
2022/05/06 01:48:03;;;;;;;7.57;2.90;;;;;;;8.30;27.16;100919.69;5036200;28;20029;-58
2022/05/06 01:50:32;;;;;;;5.70;2.50;;;;;;;8.29;27.25;100925.13;5035717;28;20420;-55
2022/05/06 01:52:59;;;;;;;4.63;2.70;;;;;;;8.24;27.36;100932.50;5053372;28;20044;-57
2022/05/06 01:55:25;;;;;;;5.75;2.72;;;;;;;8.19;27.42;100925.59;5053647;28;20040;-57
2022/05/06 01:57:51;;;;;;;5.60;2.78;;;;;;;8.17;27.45;100930.13;5053642;28;20469;-54
2022/05/06 02:00:17;;;;;;;6.35;3.05;;;;;;;8.12;27.51;100918.00;5053526;28;20040;-53
2022/05/06 02:02:42;;;;;;;6.53;2.63;;;;;;;8.15;27.41;100932.03;5053764;28;20036;-53
2022/05/06 02:05:17;;;;;;;7.53;2.60;;;;;;;8.15;27.63;100925.84;5053214;28;20041;-55
2022/05/06 02:07:48;;;;;;;3.80;2.60;;;;;;;8.22;27.45;100929.06;5052681;28;20029;-53
2022/05/06 02:10:15;;;;;;;6.85;2.63;;;;;;;8.17;27.91;100927.47;5053671;28;20037;-54
2022/05/06 02:12:40;;;;;;;7.68;2.83;;;;;;;8.18;27.76;100929.19;5053655;28;20056;-55
2022/05/06 02:15:07;;;;;;;4.05;2.70;;;;;;;8.18;27.56;100918.53;5053294;28;20534;-51
2022/05/06 02:17:32;;;;;;;3.88;2.70;;;;;;;8.21;27.57;100922.00;5043134;28;20025;-54
2022/05/06 02:19:58;;;;;;;4.80;2.88;;;;;;;8.23;27.59;100925.44;5040831;28;20132;-61
2022/05/06 02:22:27;;;;;;;4.85;2.45;;;;;;;8.29;27.22;100925.97;5043629;28;20087;-60
2022/05/06 02:24:55;;;;;;;3.67;2.85;;;;;;;8.33;27.10;100921.34;5024332;28;20041;-56
2022/05/06 02:27:21;;;;;;;7.03;3.13;;;;;;;8.10;27.51;100888.75;5039619;28;20043;-53
2022/05/06 02:35:15;;;;;;;5.30;2.92;;;;;;;8.42;27.07;100922.66;5039617;28;20389;-59
2022/05/06 02:37:41;;;;;;;6.70;2.85;;;;;;;8.44;27.72;100939.44;5041169;28;20129;-58
2022/05/06 02:40:09;;;;;;;5.25;2.30;;;;;;;8.44;27.09;100932.31;5040374;28;20032;-57
2022/05/06 02:42:35;;;;;;;6.80;2.47;;;;;;;8.38;27.45;100932.59;5041126;28;20060;-55
2022/05/06 02:45:00;;;;;;;9.18;2.72;;;;;;;8.26;27.81;100910.13;5042060;28;20079;-57
2022/05/06 02:47:26;;;;;;;7.32;2.80;;;;;;;8.50;27.44;100943.63;5040182;28;20030;-55
2022/05/06 02:49:52;;;;;;;6.85;2.80;;;;;;;8.52;27.58;100941.72;5040499;28;20021;-53
2022/05/06 02:52:18;;;;;;;6.97;2.80;;;;;;;8.54;27.47;100945.16;5039759;28;20060;-57
2022/05/06 02:54:45;;;;;;;5.53;2.92;;;;;;;8.61;27.45;100951.91;5025253;28;20024;-56
2022/05/06 02:57:10;;;;;;;5.93;2.80;;;;;;;8.51;27.31;100918.66;5041423;28;20162;-58
2022/05/06 02:59:36;;;;;;;12.95;3.00;;;;;;;8.71;27.28;100944.25;5026300;28;20119;-53
2022/05/06 03:02:02;;;;;;;3.15;2.53;;;;;;;8.76;27.04;100952.84;5035266;28;20060;-55
2022/05/06 03:04:28;;;;;;;6.43;3.03;;;;;;;8.77;26.98;100946.56;5030692;28;20177;-55
2022/05/06 03:06:53;;;;;;;6.82;2.90;;;;;;;8.91;26.99;100953.81;5030354;28;20026;-53
2022/05/06 03:09:19;;;;;;;8.02;3.08;;;;;;;8.95;26.94;100950.06;5032238;28;20065;-54
2022/05/06 03:11:45;;;;;;;6.38;2.75;;;;;;;9.03;26.73;100949.59;5032519;28;20120;-53
2022/05/06 03:14:11;;;;;;;4.70;2.55;;;;;;;9.14;26.57;100954.34;5032852;28;20036;-53
2022/05/06 03:16:36;;;;;;;8.70;2.70;;;;;;;9.22;26.55;100952.13;5039842;28;20029;-55
2022/05/06 03:19:02;;;;;;;5.30;2.83;;;;;;;9.36;26.40;100953.13;5041482;28;20025;-55
2022/05/06 03:21:27;;;;;;;5.80;3.00;;;;;;;9.50;26.19;100957.66;5041560;28;20455;-55
2022/05/06 03:23:53;;;;;;;7.32;2.58;;;;;;;9.61;26.42;100966.78;5040448;28;20102;-56
2022/05/06 03:26:19;;;;;;;7.35;2.88;;;;;;;9.76;26.35;100956.16;5023708;28;20056;-57
2022/05/06 03:28:44;;;;;;;7.45;2.90;;;;;;;9.96;25.78;100970.16;5039534;28;20064;-58
2022/05/06 03:31:13;;;;;;;5.35;2.60;;;;;;;10.09;25.67;100956.91;5023404;28;20033;-57
2022/05/06 03:33:39;;;;;;;5.20;2.75;;;;;;;10.24;25.15;100949.75;5040085;28;20036;-54
2022/05/06 03:36:04;;;;;;;6.75;2.85;;;;;;;10.46;24.82;100942.16;5041010;28;20029;-56
2022/05/06 03:38:30;;;;;;;4.35;2.60;;;;;;;10.96;24.53;100960.47;5015086;28;20025;-56
2022/05/06 03:40:55;;;;;;;7.13;3.17;;;;;;;11.30;24.00;100958.28;5039790;28;20339;-58
2022/05/06 03:43:21;;;;;;;9.27;3.03;;;;;;;11.71;23.83;100958.31;5041860;28;20112;-55
2022/05/06 03:45:46;;;;;;;4.22;2.67;;;;;;;12.01;23.25;100935.75;5040572;28;20052;-56
2022/05/06 03:48:12;;;;;;;7.20;3.17;;;;;;;12.75;22.68;100965.47;5039864;28;20132;-56
2022/05/06 03:53:24;;;;;;;6.38;3.17;;;;;;;13.98;21.20;100966.41;5037361;28;20113;-57
2022/05/06 03:55:49;;;;;;;6.82;3.00;;;;;;;14.39;20.52;100974.97;5039891;28;20128;-58
2022/05/06 03:58:15;;;;;;;7.90;3.10;;;;;;;15.06;19.98;100966.03;5041658;28;20510;-57
2022/05/06 04:00:41;;;;;;;9.85;3.53;;;;;;;16.70;18.44;100966.72;5039534;28;20479;-54
2022/05/06 04:03:06;;;;;;;7.97;3.08;;;;;;;18.46;16.55;100970.56;5040391;28;20388;-58
2022/05/06 04:05:33;;;;;;;9.18;3.65;;;;;;;19.85;15.21;100959.75;5038343;28;20033;-57
2022/05/06 04:08:00;;;;;;;6.22;3.15;;;;;;;21.23;14.10;100964.50;5040368;28;20085;-59
2022/05/06 04:10:26;;;;;;;5.40;3.03;;;;;;;22.32;13.43;100968.97;5040043;28;20018;-56
2022/05/06 04:12:53;;;;;;;8.32;2.80;;;;;;;23.37;12.38;100967.91;5039184;28;20029;-57
2022/05/06 04:15:19;;;;;;;5.05;3.30;;;;;;;24.42;11.51;100964.69;5040933;28;20037;-60
2022/05/06 04:17:45;;;;;;;6.78;3.35;;;;;;;25.39;10.81;100950.13;5040103;28;20026;-58
2022/05/06 04:25:41;;;;;;;6.70;3.25;;;;;;;26.78;10.08;100973.44;5041080;28;20056;-59
2022/05/06 04:28:08;;;;;;;5.45;3.10;;;;;;;26.20;10.09;100966.31;5043613;28;20101;-60
2022/05/06 04:30:34;;;;;;;4.20;2.90;;;;;;;25.71;10.70;100969.88;5039074;28;20029;-59
2022/05/06 04:32:59;;;;;;;10.95;3.50;;;;;;;25.12;10.95;100969.84;5023255;28;20076;-58
2022/05/06 04:35:25;;;;;;;5.72;3.72;;;;;;;24.45;11.08;100963.44;5036775;28;20117;-59
2022/05/06 04:37:50;;;;;;;5.90;3.67;;;;;;;23.78;11.79;100968.66;5039357;28;20083;-59
2022/05/06 04:40:16;;;;;;;6.13;3.25;;;;;;;23.12;12.26;100972.66;5040913;28;20457;-60
2022/05/06 04:42:43;;;;;;;7.10;3.70;;;;;;;22.41;12.86;100976.13;5039234;28;20021;-60
2022/05/06 04:45:10;;;;;;;6.05;3.67;;;;;;;21.64;13.24;100974.63;5039242;28;20091;-60
2022/05/06 04:47:37;;;;;;;7.75;3.17;;;;;;;21.01;13.92;100976.84;5040672;28;20559;-59
2022/05/06 04:50:04;;;;;;;5.97;3.58;;;;;;;20.51;14.54;100969.28;5038973;28;20108;-60
2022/05/06 04:52:31;;;;;;;9.32;3.75;;;;;;;20.16;14.81;100979.22;5021831;28;20545;-58
2022/05/06 04:54:57;;;;;;;6.70;3.40;;;;;;;19.85;14.92;100974.22;5043895;28;20048;-57
2022/05/06 04:57:22;;;;;;;6.63;3.78;;;;;;;19.38;15.58;100966.28;5049358;28;20384;-58
2022/05/06 04:59:48;;;;;;;8.07;3.83;;;;;;;18.83;15.91;100987.00;5049966;28;20093;-59
2022/05/06 05:02:18;;;;;;;7.70;3.53;;;;;;;18.57;16.29;100982.25;5051057;28;20036;-54
2022/05/06 05:04:44;;;;;;;9.15;3.95;;;;;;;18.23;16.53;100989.03;5051391;28;20029;-56
2022/05/06 05:07:10;;;;;;;6.82;3.10;;;;;;;17.97;17.20;100980.63;5050975;28;20555;-59
2022/05/06 05:09:36;;;;;;;7.15;3.58;;;;;;;17.78;17.24;100980.50;5051067;28;20029;-60
2022/05/06 05:12:01;;;;;;;7.72;4.15;;;;;;;17.72;17.19;100975.63;5033385;28;20036;-60
2022/05/06 05:14:27;;;;;;;7.70;3.45;;;;;;;17.67;17.64;100975.19;5051042;28;20041;-60
2022/05/06 05:16:52;;;;;;;8.25;3.83;;;;;;;17.51;17.54;100978.47;5051064;28;20400;-59
2022/05/06 05:19:18;;;;;;;9.52;4.10;;;;;;;17.41;17.60;100983.03;5050820;28;20048;-58
2022/05/06 05:21:43;;;;;;;8.60;3.50;;;;;;;17.29;17.36;100985.00;5055007;28;20215;-55
2022/05/06 05:24:09;;;;;;;8.77;3.50;;;;;;;17.16;17.77;100975.28;5054616;28;20105;-57
2022/05/06 05:26:35;;;;;;;9.18;4.10;;;;;;;17.13;18.03;100985.56;5054809;28;20068;-54
2022/05/06 05:29:01;;;;;;;6.88;3.60;;;;;;;17.14;17.71;100984.56;5054970;28;20048;-54
2022/05/06 05:31:26;;;;;;;9.32;3.70;;;;;;;17.28;17.55;100981.44;5054598;28;20029;-60
2022/05/06 05:33:55;;;;;;;12.82;3.90;;;;;;;17.45;17.39;100985.31;5054854;28;20445;-58
2022/05/06 05:36:20;;;;;;;6.07;3.50;;;;;;;17.52;17.13;100987.47;5054841;28;20033;-55
2022/05/06 05:38:46;;;;;;;6.45;3.33;;;;;;;17.55;16.87;100989.88;5054878;28;20025;-57
2022/05/06 05:41:11;;;;;;;7.50;3.70;;;;;;;17.50;16.91;100993.00;5054575;28;20056;-56
2022/05/06 05:49:05;;;;;;;6.57;3.78;;;;;;;17.56;17.11;100995.16;5054173;28;20039;-57
2022/05/06 05:51:33;;;;;;;6.53;3.10;;;;;;;17.59;17.13;100997.56;5053841;28;20029;-57
2022/05/06 05:53:58;;;;;;;9.05;3.88;;;;;;;17.73;16.83;100990.03;5054426;28;20111;-58
2022/05/06 05:56:24;;;;;;;9.55;3.47;;;;;;;18.06;16.75;100990.63;5054110;28;20448;-58
2022/05/06 05:58:50;;;;;;;8.85;3.50;;;;;;;18.42;16.32;100996.28;5054380;28;20040;-57
2022/05/06 06:01:15;;;;;;;10.18;4.00;;;;;;;18.68;16.10;100995.63;5054267;28;20174;-60
2022/05/06 06:03:41;;;;;;;11.95;3.67;;;;;;;18.85;15.63;101004.81;5036256;28;20112;-57
2022/05/06 06:06:06;;;;;;;6.70;3.58;;;;;;;19.12;15.82;100999.59;5053799;28;20484;-57
2022/05/06 06:08:32;;;;;;;7.45;3.97;;;;;;;19.42;15.64;101003.00;5054353;28;20060;-59
2022/05/06 06:11:01;;;;;;;15.23;4.53;;;;;;;19.98;14.96;100990.16;5054431;28;20104;-60
2022/05/06 06:13:27;;;;;;;8.75;4.00;;;;;;;20.67;14.50;100986.69;5054168;28;20393;-61
2022/05/06 06:15:53;;;;;;;9.07;3.70;;;;;;;21.21;13.86;100994.59;5054042;28;20032;-57
2022/05/06 06:18:23;;;;;;;9.93;3.95;;;;;;;21.48;13.74;100989.91;5054220;28;20037;-57
2022/05/06 06:20:49;;;;;;;10.65;4.25;;;;;;;21.72;13.44;101001.06;5054147;28;20029;-57
2022/05/06 06:23:15;;;;;;;11.43;4.40;;;;;;;22.00;13.49;100987.94;5053517;28;20044;-59
2022/05/06 06:25:41;;;;;;;10.02;4.03;;;;;;;22.50;13.19;100996.94;5035683;28;20053;-56
2022/05/06 06:28:06;;;;;;;11.48;4.28;;;;;;;23.11;12.74;100998.28;5035797;28;20049;-55
2022/05/06 06:30:32;;;;;;;10.45;3.83;;;;;;;23.83;12.09;100999.03;5052972;28;20033;-57
2022/05/06 06:32:58;;;;;;;10.20;4.10;;;;;;;24.45;11.37;100991.69;5053455;28;20104;-61
2022/05/06 06:35:23;;;;;;;6.85;4.15;;;;;;;25.29;10.97;100997.88;5053796;28;20028;-57
2022/05/06 06:37:49;;;;;;;10.85;4.00;;;;;;;26.02;10.38;100986.00;5053755;28;20028;-59
2022/05/06 06:40:14;;;;;;;9.60;3.78;;;;;;;26.51;10.15;100992.50;5053233;28;20246;-58
2022/05/06 06:42:42;;;;;;;10.30;4.03;;;;;;;27.27;9.45;100991.84;5035701;28;20021;-57
2022/05/06 06:45:09;;;;;;;7.43;3.70;;;;;;;27.88;8.93;100999.19;5053714;28;20380;-56
2022/05/06 06:47:35;;;;;;;8.05;3.47;;;;;;;28.11;8.79;100994.34;5053065;28;20033;-59
2022/05/06 06:50:01;;;;;;;7.93;3.58;;;;;;;28.12;9.04;100994.13;5053224;28;20029;-58
2022/05/06 06:52:27;;;;;;;8.20;4.20;;;;;;;28.46;8.92;100994.97;5053328;28;20108;-57
2022/05/06 06:54:53;;;;;;;6.88;3.47;;;;;;;28.72;8.47;100995.09;5053463;28;20094;-58
2022/05/06 06:57:18;;;;;;;7.05;3.90;;;;;;;28.71;8.47;100994.28;5053292;28;20033;-56
2022/05/06 06:59:44;;;;;;;9.57;3.88;;;;;;;28.81;8.44;100995.75;5053032;28;20029;-58
2022/05/06 07:02:09;;;;;;;6.63;3.60;;;;;;;28.73;8.24;100978.38;5053257;28;20025;-56
2022/05/06 07:04:35;;;;;;;14.27;3.28;;;;;;;29.02;8.37;100992.72;5053216;28;20463;-59
2022/05/06 07:12:29;;;;;;;7.68;3.15;;;;;;;32.25;6.75;100985.72;5053184;28;20029;-60
2022/05/06 07:14:55;;;;;;;9.75;3.20;;;;;;;32.68;6.21;100980.03;5053001;28;20167;-58
2022/05/06 07:17:21;;;;;;;6.68;2.90;;;;;;;33.64;5.41;100982.25;5034925;28;20477;-60
2022/05/06 07:19:47;;;;;;;10.38;3.25;;;;;;;34.59;5.37;100982.66;5052431;28;20033;-60
2022/05/06 07:22:12;;;;;;;6.07;3.00;;;;;;;35.63;4.72;100985.53;5052577;28;20051;-59
2022/05/06 07:24:38;;;;;;;6.78;3.15;;;;;;;36.77;4.22;100977.97;5052620;28;20207;-60
2022/05/06 07:27:04;;;;;;;3.70;2.95;;;;;;;37.75;3.46;100963.44;5052381;28;20033;-60
2022/05/06 07:29:31;;;;;;;5.53;3.55;;;;;;;38.76;2.89;100970.22;5052398;28;20068;-60
2022/05/06 07:31:57;;;;;;;6.28;3.25;;;;;;;39.81;2.75;100982.50;5052852;28;20120;-61
2022/05/06 07:34:22;;;;;;;8.98;3.35;;;;;;;41.00;2.27;100967.19;5052539;28;20103;-60
2022/05/06 07:36:48;;;;;;;3.95;3.55;;;;;;;41.23;1.80;100969.41;5052530;28;20388;-61
2022/05/06 07:39:15;;;;;;;7.78;3.78;;;;;;;41.85;1.99;100968.41;5052200;28;20465;-60
2022/05/06 07:41:41;;;;;;;6.50;4.07;;;;;;;42.46;1.33;100979.69;5052064;28;20113;-61
2022/05/06 07:44:07;;;;;;;5.57;4.68;;;;;;;42.20;1.43;100973.69;5051576;28;20029;-60
2022/05/06 07:46:34;;;;;;;8.05;4.93;;;;;;;41.50;1.90;100965.88;5051909;28;20040;-61
2022/05/06 07:49:00;;;;;;;7.35;4.55;;;;;;;40.46;2.11;100964.47;5052016;28;20120;-60
2022/05/06 07:51:27;;;;;;;7.13;4.53;;;;;;;40.55;2.01;100977.84;5052160;28;20033;-60
2022/05/06 07:53:53;;;;;;;6.20;4.28;;;;;;;40.80;1.91;100973.91;5052158;28;20032;-60
2022/05/06 07:56:19;;;;;;;6.07;4.40;;;;;;;41.49;1.98;100964.22;5051673;28;20029;-60
2022/05/06 07:58:45;;;;;;;7.20;4.55;;;;;;;41.53;1.68;100964.41;5051853;28;20109;-61
2022/05/06 08:01:12;;;;;;;5.90;4.25;;;;;;;40.88;1.66;100966.78;5051936;28;20037;-60
2022/05/06 08:06:23;;;;;;;12.70;4.73;;;;;;;38.45;2.94;100958.31;5050315;28;20033;-60
2022/05/06 08:08:48;;;;;;;4.90;4.40;;;;;;;37.15;3.26;100960.28;5051672;28;20025;-61
2022/05/06 08:11:14;;;;;;;8.45;4.25;;;;;;;35.24;3.83;100957.84;5051710;28;20071;-60
2022/05/06 08:13:39;;;;;;;8.77;4.97;;;;;;;33.06;4.80;100954.53;5051641;28;20075;-60
2022/05/06 08:16:05;;;;;;;6.03;4.70;;;;;;;31.18;5.64;100953.03;5051345;28;20078;-59
2022/05/06 08:18:30;;;;;;;8.38;4.13;;;;;;;29.63;6.69;100953.78;5051437;28;20029;-60
2022/05/06 08:20:56;;;;;;;5.45;3.60;;;;;;;28.15;7.23;100949.66;5051832;28;20032;-54
2022/05/06 08:23:23;;;;;;;5.90;3.33;;;;;;;26.96;7.88;100958.31;5051655;28;20118;-58
2022/05/06 08:25:49;;;;;;;4.68;3.55;;;;;;;25.89;9.01;100937.34;5051568;28;20499;-58
2022/05/06 08:28:17;;;;;;;4.82;3.42;;;;;;;24.89;9.48;100916.06;5051335;28;20044;-56
2022/05/06 08:30:44;;;;;;;8.82;4.10;;;;;;;24.19;10.05;100927.31;5051727;28;20064;-60
2022/05/06 08:33:10;;;;;;;8.32;4.45;;;;;;;23.43;10.97;100932.72;5051255;28;20147;-57
2022/05/06 08:35:35;;;;;;;6.13;4.30;;;;;;;22.90;11.25;100922.41;5051308;28;20445;-56
2022/05/06 08:38:01;;;;;;;10.40;4.32;;;;;;;22.46;12.04;100926.50;5051339;28;20043;-60
2022/05/06 08:40:31;;;;;;;5.70;3.55;;;;;;;21.93;11.90;100929.66;5051488;28;20033;-59
2022/05/06 08:42:57;;;;;;;4.63;3.75;;;;;;;21.51;12.46;100920.63;5051185;28;20071;-56
2022/05/06 08:50:55;;;;;;;6.57;3.70;;;;;;;20.94;12.96;100904.00;5050926;28;20051;-60
2022/05/06 08:53:28;;;;;;;10.88;4.38;;;;;;;20.89;12.72;100919.97;5050884;28;20048;-58
2022/05/06 08:55:56;;;;;;;6.93;4.32;;;;;;;20.82;13.04;100920.81;5050876;28;20108;-58
2022/05/06 08:58:22;;;;;;;8.32;3.83;;;;;;;20.92;13.35;100919.66;5051215;28;20025;-58
2022/05/06 09:00:49;;;;;;;4.70;3.90;;;;;;;21.13;13.34;100917.47;5050946;28;20040;-60
2022/05/06 09:03:16;;;;;;;6.95;3.80;;;;;;;21.48;12.94;100907.34;5050268;28;20079;-57
2022/05/06 09:05:53;;;;;;;5.43;4.60;;;;;;;22.08;12.14;100910.72;5050785;28;20504;-57
2022/05/06 09:08:20;;;;;;;5.57;3.97;;;;;;;22.15;12.23;100913.63;5050992;28;20111;-59
2022/05/06 09:10:59;;;;;;;6.35;4.45;;;;;;;22.63;11.71;100914.53;5050893;28;20481;-58
2022/05/06 09:13:26;;;;;;;8.30;3.97;;;;;;;22.61;11.70;100907.53;5050473;28;20060;-60
2022/05/06 09:18:37;;;;;;;7.85;4.15;;;;;;;22.75;11.26;100916.84;5051025;28;20036;-60
2022/05/06 09:21:10;;;;;;;5.25;4.15;;;;;;;22.75;11.37;100909.53;5050752;28;20167;-60
2022/05/06 09:23:35;;;;;;;6.63;3.97;;;;;;;22.55;11.94;100911.84;5050566;28;20094;-59
2022/05/06 09:26:01;;;;;;;7.95;4.55;;;;;;;22.69;11.41;100903.91;5033160;28;20131;-59
2022/05/06 09:28:29;;;;;;;7.35;4.55;;;;;;;22.78;11.21;100909.16;5051057;28;20041;-58
2022/05/06 09:31:08;;;;;;;6.80;4.28;;;;;;;22.56;11.26;100912.66;5050904;28;20029;-60
2022/05/06 09:33:41;;;;;;;5.68;4.28;;;;;;;22.25;11.52;100902.50;5050334;28;20033;-59
2022/05/06 09:36:29;;;;;;;6.68;4.10;;;;;;;22.51;11.72;100911.31;5050560;28;20025;-57
2022/05/06 09:39:02;;;;;;;7.45;3.78;;;;;;;22.47;11.80;100899.06;5050408;28;20032;-56
2022/05/06 09:41:27;;;;;;;5.32;3.65;;;;;;;22.33;11.40;100900.63;5050049;28;20049;-61
2022/05/06 09:44:04;;;;;;;7.68;4.10;;;;;;;22.49;11.38;100910.66;5050126;28;20064;-61
2022/05/06 09:46:29;;;;;;;5.65;4.18;;;;;;;22.00;11.31;100888.94;5050548;28;20477;-60
2022/05/06 09:49:00;;;;;;;5.50;4.20;;;;;;;22.03;11.36;100910.41;5050196;28;20124;-60
2022/05/06 09:51:27;;;;;;;5.53;4.03;;;;;;;21.92;11.73;100896.09;5050423;28;20064;-58
2022/05/06 09:53:56;;;;;;;7.15;4.32;;;;;;;22.13;11.49;100899.31;5050137;28;20033;-56
2022/05/06 09:56:24;;;;;;;16.00;4.13;;;;;;;22.08;11.43;100902.53;5050429;28;20025;-58
2022/05/06 09:58:54;;;;;;;7.50;3.95;;;;;;;22.15;11.68;100911.72;5050635;28;20415;-60
2022/05/06 10:01:20;;;;;;;6.00;3.50;;;;;;;21.86;11.44;100882.31;5050106;28;20063;-59
2022/05/06 10:03:46;;;;;;;6.75;4.15;;;;;;;21.96;11.53;100890.31;5050121;28;20051;-59
2022/05/06 10:06:12;;;;;;;6.70;4.05;;;;;;;21.99;11.76;100893.53;5051722;28;20029;-57
2022/05/06 10:08:44;;;;;;;4.82;3.90;;;;;;;22.04;11.80;100888.41;5053837;28;20064;-59
2022/05/06 10:11:14;;;;;;;6.95;4.15;;;;;;;22.11;11.73;100891.28;5053973;28;20021;-59
2022/05/06 10:13:45;;;;;;;7.97;4.75;;;;;;;22.31;11.58;100902.69;5053845;28;20025;-57
2022/05/06 10:16:11;;;;;;;5.50;4.30;;;;;;;22.14;11.78;100893.66;5053535;28;20116;-59
2022/05/06 10:18:42;;;;;;;6.18;4.65;;;;;;;22.15;11.53;100884.44;5053905;28;20031;-57
2022/05/06 10:21:08;;;;;;;7.03;4.93;;;;;;;21.91;12.37;100885.38;5053917;28;20036;-58
2022/05/06 10:23:49;;;;;;;8.00;5.28;;;;;;;21.91;12.12;100883.47;5053734;28;20032;-57
2022/05/06 10:26:33;;;;;;;8.02;4.88;;;;;;;21.93;12.13;100873.25;5053690;28;20401;-58
2022/05/06 10:34:30;;;;;;;7.35;4.68;;;;;;;22.05;12.51;100859.25;5052495;28;20189;-59
2022/05/06 10:37:00;;;;;;;7.82;4.50;;;;;;;21.80;12.43;100876.50;5053511;28;20132;-61
2022/05/06 10:39:35;;;;;;;7.20;4.13;;;;;;;21.72;12.21;100873.81;5053695;28;20060;-56
2022/05/06 10:42:07;;;;;;;7.13;4.20;;;;;;;21.65;12.04;100876.34;5053527;28;20041;-58
2022/05/06 10:44:34;;;;;;;9.27;4.68;;;;;;;21.42;12.35;100864.41;5053932;28;20090;-58
2022/05/06 10:47:20;;;;;;;6.15;4.30;;;;;;;21.41;12.89;100868.16;5053333;28;20025;-57
2022/05/06 10:49:50;;;;;;;6.63;4.45;;;;;;;21.28;12.86;100853.19;5052639;28;20064;-59
2022/05/06 10:52:15;;;;;;;6.57;4.72;;;;;;;21.02;12.71;100853.31;5053160;28;20492;-58
2022/05/06 10:54:52;;;;;;;8.45;4.22;;;;;;;20.99;12.91;100857.22;5035445;28;20040;-56
2022/05/06 10:57:19;;;;;;;6.45;4.00;;;;;;;20.87;13.30;100862.13;5052900;28;20094;-57
2022/05/06 10:59:51;;;;;;;7.20;4.32;;;;;;;20.91;13.43;100862.63;5052918;28;20047;-60
2022/05/06 11:02:20;;;;;;;6.20;4.10;;;;;;;20.71;12.95;100865.59;5035222;28;20377;-60
2022/05/06 11:04:53;;;;;;;6.07;4.40;;;;;;;20.68;13.26;100857.78;5053315;28;20132;-60
2022/05/06 11:07:19;;;;;;;6.50;3.72;;;;;;;20.43;13.15;100851.41;5052875;28;20044;-56
2022/05/06 11:09:45;;;;;;;4.43;3.67;;;;;;;20.40;13.36;100849.84;5052859;28;20029;-58
2022/05/06 11:12:12;;;;;;;6.30;3.90;;;;;;;20.37;13.48;100847.47;5052882;28;20031;-59
2022/05/06 11:14:38;;;;;;;7.32;4.53;;;;;;;20.44;13.51;100851.22;5053067;28;20083;-58
2022/05/06 11:17:16;;;;;;;8.27;4.30;;;;;;;20.55;13.17;100846.53;5052898;28;20025;-60
2022/05/06 11:19:41;;;;;;;6.72;3.92;;;;;;;20.32;12.97;100834.34;5052468;28;20033;-59
2022/05/06 11:22:08;;;;;;;7.22;4.20;;;;;;;20.21;13.26;100840.09;5052949;28;20369;-57
2022/05/06 11:24:34;;;;;;;6.25;4.10;;;;;;;20.21;13.40;100840.94;5052790;28;20041;-58
2022/05/06 11:27:20;;;;;;;9.13;4.90;;;;;;;20.48;13.38;100836.28;5052478;28;20045;-57
2022/05/06 11:29:49;;;;;;;;;;;;;;;20.79;13.07;100843.91;5052947;28;20069;-59
2022/05/06 11:32:16;;;;;;;5.85;4.60;;;;;;;20.32;13.19;100826.19;5052538;28;19913;-56
2022/05/06 11:34:55;;;;;;;6.35;4.95;;;;;;;20.23;13.11;100841.63;5052703;28;20354;-55
2022/05/06 11:37:25;;;;;;;9.07;5.00;;;;;;;19.65;13.60;100840.38;5052366;28;20029;-56
2022/05/06 11:39:51;;;;;;;7.25;4.63;;;;;;;19.34;13.87;100830.84;5052701;28;20029;-57
2022/05/06 11:42:24;;;;;;;6.93;4.80;;;;;;;19.25;14.26;100829.03;5052355;28;20040;-55
2022/05/06 11:47:44;;;;;;;6.53;4.60;;;;;;;19.17;14.13;100820.84;5050811;28;20025;-58
2022/05/06 11:50:10;;;;;;;7.18;4.82;;;;;;;19.05;14.10;100829.22;5052464;28;20350;-58
2022/05/06 11:52:39;;;;;;;10.32;5.65;;;;;;;18.85;14.56;100817.63;5052587;28;20116;-60
2022/05/06 11:55:06;;;;;;;6.85;4.80;;;;;;;18.71;14.76;100827.13;5052259;28;20025;-55
2022/05/06 11:57:34;;;;;;;8.38;5.18;;;;;;;18.74;14.59;100805.13;5051909;28;20464;-59
2022/05/06 12:00:03;;;;;;;8.15;5.25;;;;;;;18.81;14.93;100802.66;5051811;28;20083;-57
2022/05/06 12:02:29;;;;;;;9.32;5.57;;;;;;;18.94;15.17;100816.72;5051692;28;20427;-57
2022/05/06 12:04:54;;;;;;;9.82;5.53;;;;;;;19.11;14.91;100813.31;5034281;28;20025;-57
2022/05/06 12:07:20;;;;;;;7.18;5.95;;;;;;;19.12;14.63;100810.44;5051946;28;20029;-54
2022/05/06 12:09:46;;;;;;;10.07;5.03;;;;;;;19.19;14.77;100807.97;5051810;28;20350;-56
2022/05/06 12:12:12;;;;;;;8.82;5.68;;;;;;;19.17;14.62;100804.56;5052053;28;20116;-57